sensor_id;sensor_type;location;lat;lon;timestamp;pressure;altitude;pressure_sealevel;temperature;humidity
23229;BME280;11783;50.350;6.576;2022-11-20T00:01:32;95628.78;;;3.72;100.00
23229;BME280;11783;50.350;6.576;2022-11-20T00:03:58;95623.56;;;3.65;100.00
23229;BME280;11783;50.350;6.576;2022-11-20T00:06:24;95616.78;;;3.51;100.00
23229;BME280;11783;50.350;6.576;2022-11-20T00:08:50;95620.44;;;3.50;100.00
23229;BME280;11783;50.350;6.576;2022-11-20T00:11:20;95619.69;;;3.43;100.00
23229;BME280;11783;50.350;6.576;2022-11-20T00:13:48;95614.59;;;3.48;100.00
23229;BME280;11783;50.350;6.576;2022-11-20T00:16:16;95621.84;;;3.53;100.00
23229;BME280;11783;50.350;6.576;2022-11-20T00:18:43;95614.13;;;3.58;100.00
23229;BME280;11783;50.350;6.576;2022-11-20T00:21:16;95619.63;;;3.56;100.00
23229;BME280;11783;50.350;6.576;2022-11-20T00:23:43;95619.44;;;3.51;100.00
23229;BME280;11783;50.350;6.576;2022-11-20T00:26:13;95614.78;;;3.53;100.00
23229;BME280;11783;50.350;6.576;2022-11-20T00:28:39;95613.72;;;3.61;100.00
23229;BME280;11783;50.350;6.576;2022-11-20T00:31:13;95630.41;;;3.73;100.00
23229;BME280;11783;50.350;6.576;2022-11-20T00:33:39;95623.31;;;3.74;100.00
23229;BME280;11783;50.350;6.576;2022-11-20T00:36:06;95621.91;;;3.71;100.00
23229;BME280;11783;50.350;6.576;2022-11-20T00:38:32;95627.38;;;3.70;100.00
23229;BME280;11783;50.350;6.576;2022-11-20T00:41:01;95624.75;;;3.70;100.00
23229;BME280;11783;50.350;6.576;2022-11-20T00:43:27;95622.53;;;3.67;100.00
23229;BME280;11783;50.350;6.576;2022-11-20T00:46:07;95624.50;;;3.78;100.00
23229;BME280;11783;50.350;6.576;2022-11-20T00:48:32;95625.31;;;3.72;100.00
23229;BME280;11783;50.350;6.576;2022-11-20T00:50:58;95617.41;;;3.78;100.00
23229;BME280;11783;50.350;6.576;2022-11-20T00:53:24;95621.66;;;3.79;100.00
23229;BME280;11783;50.350;6.576;2022-11-20T00:55:54;95613.09;;;3.84;100.00
23229;BME280;11783;50.350;6.576;2022-11-20T00:58:21;95613.97;;;3.78;100.00
23229;BME280;11783;50.350;6.576;2022-11-20T01:00:47;95615.00;;;3.77;100.00
23229;BME280;11783;50.350;6.576;2022-11-20T01:03:12;95616.16;;;3.81;100.00
23229;BME280;11783;50.350;6.576;2022-11-20T01:05:37;95621.59;;;3.86;100.00
23229;BME280;11783;50.350;6.576;2022-11-20T01:08:03;95615.31;;;3.87;100.00
23229;BME280;11783;50.350;6.576;2022-11-20T01:10:28;95612.66;;;3.87;100.00
23229;BME280;11783;50.350;6.576;2022-11-20T01:12:53;95608.63;;;3.91;100.00
23229;BME280;11783;50.350;6.576;2022-11-20T01:15:39;95609.19;;;3.93;100.00
23229;BME280;11783;50.350;6.576;2022-11-20T01:18:04;95610.81;;;3.94;100.00
23229;BME280;11783;50.350;6.576;2022-11-20T01:20:34;95604.34;;;3.90;100.00
23229;BME280;11783;50.350;6.576;2022-11-20T01:22:59;95610.22;;;3.92;100.00
23229;BME280;11783;50.350;6.576;2022-11-20T01:25:25;95603.75;;;3.88;100.00
23229;BME280;11783;50.350;6.576;2022-11-20T01:27:50;95604.06;;;3.80;100.00
23229;BME280;11783;50.350;6.576;2022-11-20T01:30:15;95613.91;;;3.84;100.00
23229;BME280;11783;50.350;6.576;2022-11-20T01:32:41;95610.00;;;3.93;100.00
23229;BME280;11783;50.350;6.576;2022-11-20T01:35:07;95604.75;;;3.93;100.00
23229;BME280;11783;50.350;6.576;2022-11-20T01:37:34;95611.75;;;4.00;100.00
23229;BME280;11783;50.350;6.576;2022-11-20T01:40:00;95604.09;;;3.98;100.00
23229;BME280;11783;50.350;6.576;2022-11-20T01:42:25;95602.03;;;4.00;100.00
23229;BME280;11783;50.350;6.576;2022-11-20T01:45:50;95604.16;;;3.91;100.00
23229;BME280;11783;50.350;6.576;2022-11-20T01:48:19;95604.91;;;3.99;100.00
23229;BME280;11783;50.350;6.576;2022-11-20T01:50:45;95615.03;;;3.95;100.00
23229;BME280;11783;50.350;6.576;2022-11-20T01:53:15;95604.91;;;3.99;100.00
23229;BME280;11783;50.350;6.576;2022-11-20T01:55:47;95606.28;;;4.01;100.00
23229;BME280;11783;50.350;6.576;2022-11-20T01:58:16;95603.22;;;4.04;100.00
23229;BME280;11783;50.350;6.576;2022-11-20T02:00:44;95611.69;;;4.06;100.00
23229;BME280;11783;50.350;6.576;2022-11-20T02:03:12;95617.34;;;4.10;100.00
23229;BME280;11783;50.350;6.576;2022-11-20T02:05:45;95613.25;;;4.14;100.00
23229;BME280;11783;50.350;6.576;2022-11-20T02:08:13;95614.84;;;4.15;100.00
23229;BME280;11783;50.350;6.576;2022-11-20T02:10:39;95610.63;;;4.14;100.00
23229;BME280;11783;50.350;6.576;2022-11-20T02:13:04;95611.19;;;4.16;100.00
23229;BME280;11783;50.350;6.576;2022-11-20T02:15:49;95604.25;;;4.21;100.00
23229;BME280;11783;50.350;6.576;2022-11-20T02:18:16;95606.88;;;4.21;100.00
23229;BME280;11783;50.350;6.576;2022-11-20T02:20:44;95616.38;;;4.22;100.00
23229;BME280;11783;50.350;6.576;2022-11-20T02:23:22;95613.16;;;4.20;100.00
23229;BME280;11783;50.350;6.576;2022-11-20T02:25:50;95610.31;;;4.22;100.00
23229;BME280;11783;50.350;6.576;2022-11-20T02:28:17;95602.22;;;4.23;100.00
23229;BME280;11783;50.350;6.576;2022-11-20T02:30:43;95601.75;;;4.26;100.00
23229;BME280;11783;50.350;6.576;2022-11-20T02:33:08;95607.19;;;4.32;100.00
23229;BME280;11783;50.350;6.576;2022-11-20T02:38:01;95601.63;;;4.40;100.00
23229;BME280;11783;50.350;6.576;2022-11-20T02:40:27;95602.22;;;4.42;100.00
23229;BME280;11783;50.350;6.576;2022-11-20T02:42:53;95597.91;;;4.47;100.00
23229;BME280;11783;50.350;6.576;2022-11-20T02:45:18;95597.31;;;4.45;100.00
23229;BME280;11783;50.350;6.576;2022-11-20T02:47:43;95599.38;;;4.43;100.00
23229;BME280;11783;50.350;6.576;2022-11-20T02:50:09;95589.81;;;4.49;100.00
23229;BME280;11783;50.350;6.576;2022-11-20T02:52:34;95583.75;;;4.48;100.00
23229;BME280;11783;50.350;6.576;2022-11-20T02:54:59;95589.38;;;4.52;100.00
23229;BME280;11783;50.350;6.576;2022-11-20T02:57:25;95592.22;;;4.50;100.00
23229;BME280;11783;50.350;6.576;2022-11-20T02:59:51;95589.28;;;4.59;100.00
23229;BME280;11783;50.350;6.576;2022-11-20T03:02:16;95591.41;;;4.50;100.00
23229;BME280;11783;50.350;6.576;2022-11-20T03:04:41;95581.25;;;4.53;100.00
23229;BME280;11783;50.350;6.576;2022-11-20T03:07:07;95573.56;;;4.52;100.00
23229;BME280;11783;50.350;6.576;2022-11-20T03:09:33;95575.97;;;4.53;100.00
23229;BME280;11783;50.350;6.576;2022-11-20T03:11:58;95572.78;;;4.51;100.00
23229;BME280;11783;50.350;6.576;2022-11-20T03:14:24;95572.53;;;4.53;100.00
23229;BME280;11783;50.350;6.576;2022-11-20T03:16:49;95571.53;;;4.54;100.00
23229;BME280;11783;50.350;6.576;2022-11-20T03:19:14;95572.31;;;4.54;100.00
23229;BME280;11783;50.350;6.576;2022-11-20T03:21:40;95573.56;;;4.52;100.00
23229;BME280;11783;50.350;6.576;2022-11-20T03:24:05;95561.22;;;4.52;100.00
23229;BME280;11783;50.350;6.576;2022-11-20T03:26:31;95569.69;;;4.54;100.00
23229;BME280;11783;50.350;6.576;2022-11-20T03:28:58;95559.97;;;4.55;100.00
23229;BME280;11783;50.350;6.576;2022-11-20T03:31:31;95559.75;;;4.56;100.00
23229;BME280;11783;50.350;6.576;2022-11-20T03:33:57;95558.94;;;4.56;100.00
23229;BME280;11783;50.350;6.576;2022-11-20T03:36:25;95554.72;;;4.55;100.00
23229;BME280;11783;50.350;6.576;2022-11-20T03:38:53;95557.78;;;4.52;100.00
23229;BME280;11783;50.350;6.576;2022-11-20T03:41:21;95558.81;;;4.51;100.00
23229;BME280;11783;50.350;6.576;2022-11-20T03:43:51;95552.88;;;4.55;100.00
23229;BME280;11783;50.350;6.576;2022-11-20T03:46:17;95561.78;;;4.54;100.00
23229;BME280;11783;50.350;6.576;2022-11-20T03:48:43;95554.94;;;4.53;100.00
23229;BME280;11783;50.350;6.576;2022-11-20T03:51:09;95559.16;;;4.54;100.00
23229;BME280;11783;50.350;6.576;2022-11-20T03:53:35;95552.88;;;4.55;100.00
23229;BME280;11783;50.350;6.576;2022-11-20T03:56:00;95553.56;;;4.51;100.00
23229;BME280;11783;50.350;6.576;2022-11-20T03:58:25;95554.56;;;4.50;100.00
23229;BME280;11783;50.350;6.576;2022-11-20T04:00:51;95557.94;;;4.39;100.00
23229;BME280;11783;50.350;6.576;2022-11-20T04:03:16;95565.09;;;4.32;100.00
23229;BME280;11783;50.350;6.576;2022-11-20T04:05:41;95559.53;;;4.40;100.00
23229;BME280;11783;50.350;6.576;2022-11-20T04:08:07;95565.34;;;4.30;100.00
23229;BME280;11783;50.350;6.576;2022-11-20T04:10:32;95566.13;;;4.31;100.00
23229;BME280;11783;50.350;6.576;2022-11-20T04:12:57;95569.03;;;4.22;100.00
23229;BME280;11783;50.350;6.576;2022-11-20T04:15:22;95563.94;;;4.09;100.00
23229;BME280;11783;50.350;6.576;2022-11-20T04:17:48;95565.22;;;4.00;100.00
23229;BME280;11783;50.350;6.576;2022-11-20T04:20:13;95566.25;;;3.99;100.00
23229;BME280;11783;50.350;6.576;2022-11-20T04:22:39;95560.28;;;3.92;100.00
23229;BME280;11783;50.350;6.576;2022-11-20T04:25:05;95567.94;;;3.93;100.00
23229;BME280;11783;50.350;6.576;2022-11-20T04:27:30;95567.53;;;3.90;100.00
23229;BME280;11783;50.350;6.576;2022-11-20T04:29:55;95567.97;;;3.87;100.00
23229;BME280;11783;50.350;6.576;2022-11-20T04:32:21;95564.03;;;3.78;100.00
23229;BME280;11783;50.350;6.576;2022-11-20T04:34:46;95563.59;;;3.81;100.00
23229;BME280;11783;50.350;6.576;2022-11-20T04:37:11;95557.53;;;3.80;100.00
23229;BME280;11783;50.350;6.576;2022-11-20T04:39:37;95566.16;;;3.87;100.00
23229;BME280;11783;50.350;6.576;2022-11-20T04:42:02;95559.16;;;3.81;100.00
23229;BME280;11783;50.350;6.576;2022-11-20T04:44:46;95558.13;;;3.82;100.00
23229;BME280;11783;50.350;6.576;2022-11-20T04:47:11;95555.88;;;3.86;100.00
23229;BME280;11783;50.350;6.576;2022-11-20T04:49:36;95556.44;;;3.88;100.00
23229;BME280;11783;50.350;6.576;2022-11-20T04:52:02;95559.47;;;3.91;100.00
23229;BME280;11783;50.350;6.576;2022-11-20T04:54:27;95564.56;;;3.86;100.00
23229;BME280;11783;50.350;6.576;2022-11-20T04:56:52;95561.72;;;3.88;100.00
23229;BME280;11783;50.350;6.576;2022-11-20T04:59:17;95563.25;;;3.77;100.00
23229;BME280;11783;50.350;6.576;2022-11-20T05:01:43;95570.69;;;3.80;100.00
23229;BME280;11783;50.350;6.576;2022-11-20T05:04:08;95557.00;;;3.72;100.00
23229;BME280;11783;50.350;6.576;2022-11-20T05:06:39;95564.75;;;3.67;100.00
23229;BME280;11783;50.350;6.576;2022-11-20T05:09:04;95561.31;;;3.66;100.00
23229;BME280;11783;50.350;6.576;2022-11-20T05:11:31;95557.66;;;3.67;100.00
23229;BME280;11783;50.350;6.576;2022-11-20T05:13:59;95559.91;;;3.63;100.00
23229;BME280;11783;50.350;6.576;2022-11-20T05:16:25;95559.91;;;3.63;100.00
23229;BME280;11783;50.350;6.576;2022-11-20T05:18:52;95570.44;;;3.63;100.00
23229;BME280;11783;50.350;6.576;2022-11-20T05:21:20;95564.38;;;3.63;100.00
23229;BME280;11783;50.350;6.576;2022-11-20T05:23:46;95570.50;;;3.57;100.00
23229;BME280;11783;50.350;6.576;2022-11-20T05:26:14;95569.50;;;3.51;100.00
23229;BME280;11783;50.350;6.576;2022-11-20T05:28:39;95566.66;;;3.53;100.00
23229;BME280;11783;50.350;6.576;2022-11-20T05:31:10;95566.66;;;3.53;100.00
23229;BME280;11783;50.350;6.576;2022-11-20T05:33:36;95575.19;;;3.48;100.00
23229;BME280;11783;50.350;6.576;2022-11-20T05:36:05;95572.25;;;3.38;100.00
23229;BME280;11783;50.350;6.576;2022-11-20T05:38:30;95570.06;;;3.35;100.00
23229;BME280;11783;50.350;6.576;2022-11-20T05:41:12;95573.88;;;3.39;100.00
23229;BME280;11783;50.350;6.576;2022-11-20T05:43:40;95571.88;;;3.34;100.00
23229;BME280;11783;50.350;6.576;2022-11-20T05:46:07;95577.75;;;3.30;100.00
23229;BME280;11783;50.350;6.576;2022-11-20T05:48:34;95577.44;;;3.20;100.00
23229;BME280;11783;50.350;6.576;2022-11-20T05:51:06;95572.81;;;3.15;100.00
23229;BME280;11783;50.350;6.576;2022-11-20T05:53:33;95578.84;;;3.16;100.00
23229;BME280;11783;50.350;6.576;2022-11-20T05:56:07;95578.03;;;3.22;100.00
23229;BME280;11783;50.350;6.576;2022-11-20T05:58:35;95580.94;;;3.07;100.00
23229;BME280;11783;50.350;6.576;2022-11-20T06:01:27;95584.22;;;3.02;100.00
23229;BME280;11783;50.350;6.576;2022-11-20T06:03:55;95576.56;;;3.01;100.00
23229;BME280;11783;50.350;6.576;2022-11-20T06:06:20;95582.19;;;3.04;100.00
23229;BME280;11783;50.350;6.576;2022-11-20T06:08:47;95582.41;;;2.96;100.00
23229;BME280;11783;50.350;6.576;2022-11-20T06:11:14;95584.25;;;2.96;100.00
23229;BME280;11783;50.350;6.576;2022-11-20T06:13:40;95575.19;;;2.92;100.00
23229;BME280;11783;50.350;6.576;2022-11-20T06:16:06;95572.41;;;2.87;100.00
23229;BME280;11783;50.350;6.576;2022-11-20T06:18:31;95569.81;;;2.80;100.00
23229;BME280;11783;50.350;6.576;2022-11-20T06:21:22;95576.91;;;2.73;100.00
23229;BME280;11783;50.350;6.576;2022-11-20T06:23:47;95579.94;;;2.70;100.00
23229;BME280;11783;50.350;6.576;2022-11-20T06:26:18;95584.81;;;2.60;100.00
23229;BME280;11783;50.350;6.576;2022-11-20T06:28:44;95583.09;;;2.47;100.00
23229;BME280;11783;50.350;6.576;2022-11-20T06:31:12;95590.56;;;2.43;100.00
23229;BME280;11783;50.350;6.576;2022-11-20T06:33:38;95590.59;;;2.30;100.00
23229;BME280;11783;50.350;6.576;2022-11-20T06:36:04;95597.50;;;2.11;100.00
23229;BME280;11783;50.350;6.576;2022-11-20T06:38:29;95594.09;;;2.11;100.00
23229;BME280;11783;50.350;6.576;2022-11-20T06:40:55;95594.28;;;2.09;100.00
23229;BME280;11783;50.350;6.576;2022-11-20T06:43:21;95583.38;;;2.12;100.00
23229;BME280;11783;50.350;6.576;2022-11-20T06:45:51;95582.41;;;2.00;100.00
23229;BME280;11783;50.350;6.576;2022-11-20T06:48:17;95581.03;;;1.91;100.00
23229;BME280;11783;50.350;6.576;2022-11-20T06:50:42;95590.69;;;1.91;100.00
23229;BME280;11783;50.350;6.576;2022-11-20T06:53:07;95593.09;;;1.86;100.00
23229;BME280;11783;50.350;6.576;2022-11-20T06:55:32;95592.50;;;1.83;100.00
23229;BME280;11783;50.350;6.576;2022-11-20T06:57:58;95596.34;;;1.88;100.00
23229;BME280;11783;50.350;6.576;2022-11-20T07:00:24;95597.56;;;1.92;100.00
23229;BME280;11783;50.350;6.576;2022-11-20T07:02:49;95594.75;;;1.87;100.00
23229;BME280;11783;50.350;6.576;2022-11-20T07:05:15;95601.38;;;1.96;100.00
23229;BME280;11783;50.350;6.576;2022-11-20T07:07:40;95604.78;;;2.03;100.00
23229;BME280;11783;50.350;6.576;2022-11-20T07:10:05;95613.06;;;2.06;100.00
23229;BME280;11783;50.350;6.576;2022-11-20T07:12:31;95608.00;;;2.11;100.00
23229;BME280;11783;50.350;6.576;2022-11-20T07:14:56;95613.44;;;2.03;100.00
23229;BME280;11783;50.350;6.576;2022-11-20T07:17:21;95614.47;;;2.09;100.00
23229;BME280;11783;50.350;6.576;2022-11-20T07:19:47;95615.06;;;2.11;100.00
23229;BME280;11783;50.350;6.576;2022-11-20T07:22:12;95618.88;;;2.15;100.00
23229;BME280;11783;50.350;6.576;2022-11-20T07:24:38;95614.00;;;2.19;100.00
23229;BME280;11783;50.350;6.576;2022-11-20T07:27:04;95611.41;;;2.25;100.00
23229;BME280;11783;50.350;6.576;2022-11-20T07:29:30;95612.00;;;2.21;100.00
23229;BME280;11783;50.350;6.576;2022-11-20T07:31:56;95620.66;;;2.21;100.00
23229;BME280;11783;50.350;6.576;2022-11-20T07:34:22;95616.25;;;2.15;100.00
23229;BME280;11783;50.350;6.576;2022-11-20T07:36:47;95609.16;;;2.22;100.00
23229;BME280;11783;50.350;6.576;2022-11-20T07:39:13;95614.03;;;2.25;100.00
23229;BME280;11783;50.350;6.576;2022-11-20T07:41:38;95616.41;;;2.33;100.00
23229;BME280;11783;50.350;6.576;2022-11-20T07:44:03;95618.00;;;2.34;100.00
23229;BME280;11783;50.350;6.576;2022-11-20T07:46:29;95612.56;;;2.36;100.00
23229;BME280;11783;50.350;6.576;2022-11-20T07:48:54;95611.34;;;2.45;100.00
23229;BME280;11783;50.350;6.576;2022-11-20T07:51:19;95610.31;;;2.39;100.00
23229;BME280;11783;50.350;6.576;2022-11-20T07:53:44;95612.56;;;2.36;100.00
23229;BME280;11783;50.350;6.576;2022-11-20T07:56:10;95621.81;;;2.45;100.00
23229;BME280;11783;50.350;6.576;2022-11-20T07:58:35;95620.22;;;2.44;100.00
23229;BME280;11783;50.350;6.576;2022-11-20T08:01:05;95615.34;;;2.48;100.00
23229;BME280;11783;50.350;6.576;2022-11-20T08:03:31;95616.38;;;2.47;100.00
23229;BME280;11783;50.350;6.576;2022-11-20T08:06:01;95623.22;;;2.48;100.00
23229;BME280;11783;50.350;6.576;2022-11-20T08:08:28;95626.25;;;2.51;100.00
23229;BME280;11783;50.350;6.576;2022-11-20T08:10:56;95624.81;;;2.55;100.00
23229;BME280;11783;50.350;6.576;2022-11-20T08:13:42;95615.72;;;2.58;100.00
23229;BME280;11783;50.350;6.576;2022-11-20T08:16:25;95615.53;;;2.53;100.00
23229;BME280;11783;50.350;6.576;2022-11-20T08:18:51;95620.94;;;2.64;100.00
23229;BME280;11783;50.350;6.576;2022-11-20T08:21:16;95625.00;;;2.60;100.00
23229;BME280;11783;50.350;6.576;2022-11-20T08:23:41;95628.78;;;2.71;100.00
23229;BME280;11783;50.350;6.576;2022-11-20T08:26:06;95619.06;;;2.78;100.00
23229;BME280;11783;50.350;6.576;2022-11-20T08:28:32;95618.28;;;2.71;100.00
23229;BME280;11783;50.350;6.576;2022-11-20T08:30:59;95616.69;;;2.70;100.00
23229;BME280;11783;50.350;6.576;2022-11-20T08:33:24;95624.72;;;2.75;100.00
23229;BME280;11783;50.350;6.576;2022-11-20T08:35:50;95620.66;;;2.86;100.00
23229;BME280;11783;50.350;6.576;2022-11-20T08:38:15;95622.44;;;2.92;100.00
23229;BME280;11783;50.350;6.576;2022-11-20T08:40:40;95616.53;;;2.96;100.00
23229;BME280;11783;50.350;6.576;2022-11-20T08:43:05;95620.91;;;3.09;100.00
23229;BME280;11783;50.350;6.576;2022-11-20T08:45:31;95625.53;;;3.14;100.00
23229;BME280;11783;50.350;6.576;2022-11-20T08:47:59;95613.63;;;3.18;100.00
23229;BME280;11783;50.350;6.576;2022-11-20T08:50:25;95626.47;;;3.26;100.00
23229;BME280;11783;50.350;6.576;2022-11-20T08:52:50;95620.38;;;3.32;100.00
23229;BME280;11783;50.350;6.576;2022-11-20T08:55:15;95620.16;;;3.33;100.00
23229;BME280;11783;50.350;6.576;2022-11-20T08:57:41;95620.94;;;3.41;100.00
23229;BME280;11783;50.350;6.576;2022-11-20T09:00:07;95630.38;;;3.48;100.00
23229;BME280;11783;50.350;6.576;2022-11-20T09:02:32;95627.75;;;3.48;100.00
23229;BME280;11783;50.350;6.576;2022-11-20T09:04:58;95625.44;;;3.58;100.00
23229;BME280;11783;50.350;6.576;2022-11-20T09:07:23;95624.28;;;3.54;100.00
23229;BME280;11783;50.350;6.576;2022-11-20T09:09:49;95627.81;;;3.67;100.00
23229;BME280;11783;50.350;6.576;2022-11-20T09:12:14;95635.84;;;3.72;100.00
23229;BME280;11783;50.350;6.576;2022-11-20T09:14:39;95628.28;;;3.82;100.00
23229;BME280;11783;50.350;6.576;2022-11-20T09:17:05;95628.66;;;3.85;100.00
23229;BME280;11783;50.350;6.576;2022-11-20T09:19:32;95627.28;;;3.83;100.00
23229;BME280;11783;50.350;6.576;2022-11-20T09:21:57;95627.63;;;3.86;100.00
23229;BME280;11783;50.350;6.576;2022-11-20T09:24:25;95630.63;;;3.90;100.00
23229;BME280;11783;50.350;6.576;2022-11-20T09:26:51;95625.28;;;4.03;100.00
23229;BME280;11783;50.350;6.576;2022-11-20T09:29:17;95625.63;;;4.07;100.00
23229;BME280;11783;50.350;6.576;2022-11-20T09:31:42;95618.44;;;4.20;100.00
23229;BME280;11783;50.350;6.576;2022-11-20T09:34:07;95616.59;;;4.21;100.00
23229;BME280;11783;50.350;6.576;2022-11-20T09:36:33;95613.31;;;4.25;100.00
23229;BME280;11783;50.350;6.576;2022-11-20T09:39:01;95617.19;;;4.41;100.00
23229;BME280;11783;50.350;6.576;2022-11-20T09:44:38;95610.25;;;4.65;100.00
23229;BME280;11783;50.350;6.576;2022-11-20T09:47:15;95609.81;;;4.86;100.00
23229;BME280;11783;50.350;6.576;2022-11-20T09:55:27;95606.56;;;5.03;100.00
23229;BME280;11783;50.350;6.576;2022-11-20T09:57:54;95614.13;;;5.11;100.00
23229;BME280;11783;50.350;6.576;2022-11-20T10:00:20;95607.03;;;5.11;100.00
23229;BME280;11783;50.350;6.576;2022-11-20T10:02:55;95593.75;;;5.18;100.00
23229;BME280;11783;50.350;6.576;2022-11-20T10:13:40;95592.53;;;5.21;100.00
23229;BME280;11783;50.350;6.576;2022-11-20T10:16:14;95592.16;;;5.17;100.00
23229;BME280;11783;50.350;6.576;2022-11-20T10:18:55;95598.94;;;5.25;100.00
23229;BME280;11783;50.350;6.576;2022-11-20T10:21:38;95591.50;;;5.22;100.00
23229;BME280;11783;50.350;6.576;2022-11-20T10:27:24;95580.41;;;5.31;100.00
23229;BME280;11783;50.350;6.576;2022-11-20T10:30:02;95579.81;;;5.29;100.00
23229;BME280;11783;50.350;6.576;2022-11-20T10:32:36;95575.13;;;5.31;100.00
23229;BME280;11783;50.350;6.576;2022-11-20T10:38:00;95568.72;;;5.27;100.00
23229;BME280;11783;50.350;6.576;2022-11-20T10:40:35;95574.31;;;5.31;100.00
23229;BME280;11783;50.350;6.576;2022-11-20T10:43:32;95573.19;;;5.38;100.00
23229;BME280;11783;50.350;6.576;2022-11-20T10:46:01;95563.03;;;5.42;100.00
23229;BME280;11783;50.350;6.576;2022-11-20T10:48:29;95567.03;;;5.44;100.00
23229;BME280;11783;50.350;6.576;2022-11-20T10:54:21;95566.09;;;5.39;100.00
23229;BME280;11783;50.350;6.576;2022-11-20T10:56:39;95570.69;;;5.43;100.00
23229;BME280;11783;50.350;6.576;2022-11-20T11:01:56;95556.84;;;5.48;100.00
23229;BME280;11783;50.350;6.576;2022-11-20T11:06:59;95549.28;;;5.52;100.00
23229;BME280;11783;50.350;6.576;2022-11-20T11:09:37;95546.63;;;5.52;100.00
23229;BME280;11783;50.350;6.576;2022-11-20T11:12:10;95549.38;;;5.57;100.00
23229;BME280;11783;50.350;6.576;2022-11-20T11:14:46;95543.56;;;5.66;100.00
23229;BME280;11783;50.350;6.576;2022-11-20T11:17:30;95538.63;;;5.58;100.00
23229;BME280;11783;50.350;6.576;2022-11-20T11:19:59;95527.88;;;5.60;100.00
23229;BME280;11783;50.350;6.576;2022-11-20T11:22:25;95520.88;;;5.65;100.00
23229;BME280;11783;50.350;6.576;2022-11-20T11:24:53;95526.25;;;5.70;100.00
23229;BME280;11783;50.350;6.576;2022-11-20T11:27:19;95514.09;;;5.81;100.00
23229;BME280;11783;50.350;6.576;2022-11-20T11:29:45;95521.44;;;5.91;100.00
23229;BME280;11783;50.350;6.576;2022-11-20T11:32:17;95514.44;;;5.85;100.00
23229;BME280;11783;50.350;6.576;2022-11-20T11:34:43;95512.75;;;5.90;100.00
23229;BME280;11783;50.350;6.576;2022-11-20T11:37:18;95507.81;;;5.94;100.00
23229;BME280;11783;50.350;6.576;2022-11-20T11:39:46;95509.31;;;6.01;100.00
23229;BME280;11783;50.350;6.576;2022-11-20T11:42:17;95499.31;;;6.03;100.00
23229;BME280;11783;50.350;6.576;2022-11-20T11:44:47;95501.81;;;6.10;100.00
23229;BME280;11783;50.350;6.576;2022-11-20T11:47:44;95498.59;;;6.20;100.00
23229;BME280;11783;50.350;6.576;2022-11-20T11:50:23;95498.13;;;6.11;100.00
23229;BME280;11783;50.350;6.576;2022-11-20T11:53:13;95493.34;;;6.08;100.00
23229;BME280;11783;50.350;6.576;2022-11-20T11:55:45;95489.81;;;6.02;100.00
23229;BME280;11783;50.350;6.576;2022-11-20T11:58:44;95486.38;;;6.02;100.00
23229;BME280;11783;50.350;6.576;2022-11-20T12:01:37;95477.56;;;5.96;100.00
23229;BME280;11783;50.350;6.576;2022-11-20T12:04:20;95476.03;;;6.00;100.00
23229;BME280;11783;50.350;6.576;2022-11-20T12:07:07;95468.22;;;6.05;100.00
23229;BME280;11783;50.350;6.576;2022-11-20T12:09:41;95468.69;;;6.02;100.00
23229;BME280;11783;50.350;6.576;2022-11-20T12:12:11;95472.59;;;5.88;100.00
23229;BME280;11783;50.350;6.576;2022-11-20T12:14:41;95470.88;;;5.94;100.00
23229;BME280;11783;50.350;6.576;2022-11-20T12:17:12;95472.81;;;5.87;100.00
23229;BME280;11783;50.350;6.576;2022-11-20T12:19:38;95478.00;;;5.82;100.00
23229;BME280;11783;50.350;6.576;2022-11-20T12:22:29;95465.50;;;5.65;100.00
23229;BME280;11783;50.350;6.576;2022-11-20T12:25:34;95471.44;;;5.72;100.00
23229;BME280;11783;50.350;6.576;2022-11-20T12:28:21;95467.09;;;5.78;100.00
23229;BME280;11783;50.350;6.576;2022-11-20T12:36:19;95455.41;;;5.74;100.00
23229;BME280;11783;50.350;6.576;2022-11-20T12:38:58;95441.91;;;5.59;100.00
23229;BME280;11783;50.350;6.576;2022-11-20T12:41:53;95451.19;;;5.61;100.00
23229;BME280;11783;50.350;6.576;2022-11-20T12:45:03;95446.25;;;5.65;100.00
23229;BME280;11783;50.350;6.576;2022-11-20T12:53:04;95440.50;;;5.68;100.00
23229;BME280;11783;50.350;6.576;2022-11-20T12:55:41;95444.06;;;5.73;100.00
23229;BME280;11783;50.350;6.576;2022-11-20T12:58:32;95432.25;;;5.76;100.00
23229;BME280;11783;50.350;6.576;2022-11-20T13:04:08;95429.03;;;5.74;100.00
23229;BME280;11783;50.350;6.576;2022-11-20T13:06:38;95439.47;;;5.69;100.00
23229;BME280;11783;50.350;6.576;2022-11-20T13:09:10;95420.00;;;5.70;100.00
23229;BME280;11783;50.350;6.576;2022-11-20T13:12:06;95414.16;;;5.68;100.00
23229;BME280;11783;50.350;6.576;2022-11-20T13:15:03;95410.47;;;5.69;100.00
23229;BME280;11783;50.350;6.576;2022-11-20T13:17:48;95411.97;;;5.76;100.00
23229;BME280;11783;50.350;6.576;2022-11-20T13:20:18;95413.69;;;5.71;100.00
23229;BME280;11783;50.350;6.576;2022-11-20T13:22:45;95403.84;;;5.66;100.00
23229;BME280;11783;50.350;6.576;2022-11-20T13:25:22;95405.59;;;5.61;100.00
23229;BME280;11783;50.350;6.576;2022-11-20T13:27:48;95398.84;;;5.41;100.00
23229;BME280;11783;50.350;6.576;2022-11-20T13:30:15;95401.47;;;5.41;100.00
23229;BME280;11783;50.350;6.576;2022-11-20T13:35:27;95388.03;;;5.55;100.00
23229;BME280;11783;50.350;6.576;2022-11-20T13:38:08;95393.31;;;5.55;100.00
23229;BME280;11783;50.350;6.576;2022-11-20T13:40:37;95383.69;;;5.48;100.00
23229;BME280;11783;50.350;6.576;2022-11-20T13:45:59;95373.03;;;5.55;100.00
23229;BME280;11783;50.350;6.576;2022-11-20T13:48:32;95375.91;;;5.54;100.00
23229;BME280;11783;50.350;6.576;2022-11-20T13:51:05;95376.16;;;5.40;100.00
23229;BME280;11783;50.350;6.576;2022-11-20T13:53:49;95381.06;;;5.37;100.00
23229;BME280;11783;50.350;6.576;2022-11-20T13:56:48;95364.22;;;5.38;100.00
23229;BME280;11783;50.350;6.576;2022-11-20T14:01:49;95355.31;;;5.27;100.00
23229;BME280;11783;50.350;6.576;2022-11-20T14:04:31;95357.50;;;5.30;100.00
23229;BME280;11783;50.350;6.576;2022-11-20T14:06:58;95357.13;;;5.38;100.00
23229;BME280;11783;50.350;6.576;2022-11-20T14:09:29;95354.84;;;5.30;100.00